Welcome to Northern Hawkes Bay. New Zealand.
PWS Header
      nz Flag



Hit Counter


W3C Valid W3C Valid logo


    Wairoa

Select any of the Stations below to visit their websites.










Historic Data from Weather Underground
Select the location of interest below. Wairoa is the default. Please have patience, this Data is slow to load in.
Northern Hawkes Bay Historical Data
Daily Summary for August 20, 2017 Units:  Metric    English   Both
« Previous Day
Next Day »
Daily Weekly Monthly Yearly Custom
  High: Low: Average:
Temperature: 16.2 °C 7.2 °C 10.2 °C
Dew Point: 10.7 °C 6.8 °C 8.6 °C
Humidity: 99% 62% 91%
Wind Speed: 23.3km/h 0.0km/h 4.7km/h
Wind Gust: 35.6km/h - -
Wind- - WNW
Pressure: 996.2 hPa 984.6 hPa -
Precipitation: 3.0 mm    
Historical Graphs
 
 
Tabular Data for August 20, 2017
Time Temperature Dew Point Pressure Wind Wind Speed Wind Gust Humidity Rainfall Rate (Hourly) solar
00:00 8.2 °C 8.1 °C 985.3 hPa NW 2.6 km/h 3.5 km/h 99% 0.0 mm 0 W/m2
00:06 8.1 °C 7.9 °C 985.3 hPa NW 2.6 km/h 5.0 km/h 99% 0.0 mm 0 W/m2
00:11 8.1 °C 7.9 °C 985.3 hPa NNW 1.1 km/h 5.0 km/h 99% 0.0 mm 0 W/m2
00:16 7.9 °C 7.4 °C 985.3 hPa North 2.6 km/h 3.5 km/h 97% 0.0 mm 0 W/m2
00:21 7.9 °C 7.4 °C 985.3 hPa North 1.1 km/h 5.0 km/h 97% 0.0 mm 0 W/m2
00:26 7.8 °C 7.3 °C 985.3 hPa North 2.6 km/h 5.0 km/h 97% 0.0 mm 0 W/m2
00:31 7.7 °C 7.3 °C 985.3 hPa NNW 2.6 km/h 5.0 km/h 97% 0.0 mm 0 W/m2
00:36 7.6 °C 7.2 °C 985.3 hPa North 1.1 km/h 5.0 km/h 97% 0.0 mm 0 W/m2
00:41 7.5 °C 7.1 °C 985.3 hPa North 2.6 km/h 5.0 km/h 97% 0.0 mm 0 W/m2
00:46 7.4 °C 6.9 °C 985.3 hPa Calm   5.0 km/h 97% 0.0 mm 0 W/m2
00:51 7.3 °C 6.8 °C 985.3 hPa North 2.6 km/h 3.5 km/h 97% 0.0 mm 0 W/m2
00:56 7.5 °C 7.1 °C 985.3 hPa NW 3.5 km/h 7.2 km/h 97% 0.0 mm 0 W/m2
01:01 7.7 °C 7.3 °C 985.3 hPa NW 5.0 km/h 7.2 km/h 97% 0.0 mm 0 W/m2
01:06 7.8 °C 7.3 °C 985.3 hPa NW 3.5 km/h 7.2 km/h 97% 0.0 mm 0 W/m2
01:11 7.8 °C 7.3 °C 985.3 hPa NNW 3.5 km/h 7.2 km/h 97% 0.0 mm 0 W/m2
01:16 7.7 °C 7.3 °C 985.3 hPa North 3.5 km/h 7.2 km/h 97% 0.0 mm 0 W/m2
01:21 7.6 °C 7.2 °C 985.3 hPa North 2.6 km/h 6.1 km/h 97% 0.0 mm 0 W/m2
01:26 7.7 °C 7.3 °C 985.3 hPa North 2.6 km/h 6.1 km/h 97% 0.0 mm 0 W/m2
01:31 7.7 °C 7.3 °C 985.3 hPa Calm   6.1 km/h 97% 0.0 mm 0 W/m2
01:36 7.6 °C 7.2 °C 985.3 hPa Calm   5.0 km/h 97% 0.0 mm 0 W/m2
01:41 7.5 °C 7.1 °C 985.3 hPa Calm   1.1 km/h 97% 0.0 mm 0 W/m2
01:46 7.5 °C 7.1 °C 985.3 hPa Calm   2.6 km/h 97% 0.0 mm 0 W/m2
01:51 7.5 °C 7.1 °C 985.3 hPa Calm   2.6 km/h 97% 0.0 mm 0 W/m2
01:57 7.5 °C 7.1 °C 985.3 hPa NNE 1.1 km/h 2.6 km/h 97% 0.0 mm 0 W/m2
02:03 7.4 °C 6.9 °C 985.3 hPa Calm   2.6 km/h 97% 0.0 mm 0 W/m2
02:08 7.5 °C 7.1 °C 985.3 hPa NNE 1.1 km/h 2.6 km/h 97% 0.0 mm 0 W/m2
02:13 7.5 °C 7.1 °C 985.0 hPa North 2.6 km/h 3.5 km/h 97% 0.0 mm 0 W/m2
02:18 7.4 °C 6.9 °C 985.3 hPa North 1.1 km/h 3.5 km/h 97% 0.0 mm 0 W/m2
02:23 7.4 °C 6.9 °C 985.0 hPa NNE 2.6 km/h 3.5 km/h 97% 0.0 mm 0 W/m2
02:28 7.3 °C 6.8 °C 985.0 hPa NNE 1.1 km/h 3.5 km/h 97% 0.0 mm 0 W/m2
02:33 7.2 °C 6.8 °C 985.0 hPa Calm   3.5 km/h 97% 0.0 mm 0 W/m2
02:38 7.2 °C 6.8 °C 985.0 hPa Calm   3.5 km/h 97% 0.0 mm 0 W/m2
02:43 7.2 °C 6.8 °C 985.0 hPa NNE 3.5 km/h 6.1 km/h 97% 0.0 mm 0 W/m2
02:48 7.3 °C 6.8 °C 985.0 hPa North 5.0 km/h 6.1 km/h 97% 0.0 mm 0 W/m2
02:53 7.4 °C 6.9 °C 985.0 hPa North 1.1 km/h 6.1 km/h 97% 0.0 mm 0 W/m2
02:58 7.3 °C 6.8 °C 985.0 hPa North 2.6 km/h 6.1 km/h 97% 0.0 mm 0 W/m2
03:18 7.2 °C 6.8 °C 985.0 hPa North 2.6 km/h 5.0 km/h 97% 0.0 mm 0 W/m2
03:23 7.3 °C 6.8 °C 985.0 hPa North 1.1 km/h 5.0 km/h 97% 0.0 mm 0 W/m2
03:28 7.3 °C 6.8 °C 985.0 hPa NNE 3.5 km/h 5.0 km/h 97% 0.0 mm 0 W/m2
03:33 7.3 °C 6.8 °C 985.0 hPa North 2.6 km/h 5.0 km/h 97% 0.0 mm 0 W/m2
03:38 7.3 °C 6.8 °C 985.0 hPa NNW 3.5 km/h 5.0 km/h 97% 0.0 mm 0 W/m2
03:43 7.4 °C 6.9 °C 985.0 hPa North 1.1 km/h 6.1 km/h 97% 0.0 mm 0 W/m2
03:48 7.3 °C 6.8 °C 985.0 hPa North 2.6 km/h 6.1 km/h 97% 0.0 mm 0 W/m2
03:53 7.3 °C 6.8 °C 985.0 hPa North 1.1 km/h 6.1 km/h 97% 0.0 mm 0 W/m2
03:58 7.2 °C 6.8 °C 984.6 hPa NNE 2.6 km/h 5.0 km/h 97% 0.0 mm 0 W/m2
04:03 7.2 °C 6.8 °C 985.0 hPa North 3.5 km/h 5.0 km/h 97% 0.0 mm 0 W/m2
04:08 7.2 °C 6.8 °C 985.0 hPa NNW 2.6 km/h 5.0 km/h 97% 0.0 mm 0 W/m2
04:13 7.2 °C 6.8 °C 985.0 hPa NW 2.6 km/h 5.0 km/h 97% 0.0 mm 0 W/m2
04:18 7.2 °C 6.8 °C 985.0 hPa NW 2.6 km/h 5.0 km/h 97% 0.0 mm 0 W/m2
04:23 7.3 °C 6.8 °C 985.0 hPa NNW 2.6 km/h 5.0 km/h 97% 0.0 mm 0 W/m2
04:28 7.3 °C 6.8 °C 985.0 hPa North 1.1 km/h 5.0 km/h 97% 0.0 mm 0 W/m2
04:33 7.3 °C 6.8 °C 985.0 hPa North 2.6 km/h 5.0 km/h 97% 0.0 mm 0 W/m2
04:38 7.4 °C 6.9 °C 985.0 hPa NNW 1.1 km/h 6.1 km/h 97% 0.0 mm 0 W/m2
04:43 7.5 °C 7.1 °C 985.0 hPa NW 3.5 km/h 8.7 km/h 97% 0.0 mm 0 W/m2
04:48 7.6 °C 7.2 °C 985.0 hPa NW 3.5 km/h 8.7 km/h 97% 0.0 mm 0 W/m2
04:53 7.7 °C 7.3 °C 985.0 hPa NNW 2.6 km/h 6.1 km/h 97% 0.0 mm 0 W/m2
04:58 7.6 °C 7.2 °C 985.0 hPa NNE 2.6 km/h 6.1 km/h 97% 0.0 mm 0 W/m2
05:03 7.5 °C 7.1 °C 985.0 hPa NE 2.6 km/h 5.0 km/h 97% 0.0 mm 0 W/m2
05:08 7.5 °C 7.1 °C 985.3 hPa NNE 2.6 km/h 5.0 km/h 97% 0.0 mm 0 W/m2
05:13 7.5 °C 7.1 °C 985.3 hPa Calm   5.0 km/h 97% 0.0 mm 0 W/m2
05:18 7.6 °C 7.2 °C 985.3 hPa Calm   5.0 km/h 97% 0.0 mm 0 W/m2
05:23 7.6 °C 7.2 °C 985.3 hPa North 1.1 km/h 5.0 km/h 97% 0.0 mm 0 W/m2
05:28 7.6 °C 7.2 °C 985.3 hPa NNE 1.1 km/h 5.0 km/h 97% 0.0 mm 0 W/m2
05:33 7.6 °C 7.2 °C 985.3 hPa North 1.1 km/h 3.5 km/h 97% 0.0 mm 0 W/m2
05:38 7.7 °C 7.3 °C 985.3 hPa NW 2.6 km/h 5.0 km/h 97% 0.0 mm 0 W/m2
05:43 7.7 °C 7.3 °C 985.3 hPa NNW 1.1 km/h 6.1 km/h 97% 0.0 mm 0 W/m2
05:48 7.8 °C 7.3 °C 985.7 hPa North 3.5 km/h 6.1 km/h 97% 0.0 mm 0 W/m2
05:53 7.8 °C 7.3 °C 985.7 hPa North 3.5 km/h 6.1 km/h 97% 0.0 mm 0 W/m2
05:58 7.9 °C 7.4 °C 985.7 hPa NNE 3.5 km/h 6.1 km/h 97% 0.3 mm 0 W/m2
06:03 7.9 °C 7.4 °C 985.7 hPa North 1.1 km/h 6.1 km/h 97% 0.3 mm 0 W/m2
06:08 7.9 °C 7.4 °C 985.7 hPa NNW 2.6 km/h 5.0 km/h 97% 0.3 mm 0 W/m2
06:13 7.8 °C 7.3 °C 985.7 hPa NNW 1.1 km/h 5.0 km/h 97% 0.3 mm 0 W/m2
06:18 7.8 °C 7.3 °C 985.7 hPa North 3.5 km/h 6.1 km/h 97% 0.3 mm 0 W/m2
06:23 7.8 °C 7.3 °C 985.7 hPa NNW 6.1 km/h 7.2 km/h 97% 0.3 mm 0 W/m2
06:28 7.8 °C 7.3 °C 985.7 hPa NNW 3.5 km/h 7.2 km/h 97% 0.3 mm 0 W/m2
06:33 7.7 °C 7.3 °C 986.0 hPa NW 2.6 km/h 7.2 km/h 97% 0.3 mm 0 W/m2
06:38 7.7 °C 7.3 °C 986.0 hPa NNW 3.5 km/h 7.2 km/h 97% 0.3 mm 0 W/m2
06:43 7.8 °C 7.3 °C 986.0 hPa NNW 2.6 km/h 7.2 km/h 97% 0.3 mm 0 W/m2
06:49 7.8 °C 7.3 °C 986.0 hPa NNW 2.6 km/h 7.2 km/h 97% 0.3 mm 0 W/m2
07:08 7.9 °C 7.4 °C 986.3 hPa North 2.6 km/h 5.0 km/h 97% 0.0 mm 3 W/m2
07:13 7.9 °C 7.4 °C 986.3 hPa NNW 2.6 km/h 5.0 km/h 97% 0.0 mm 4 W/m2
07:18 7.9 °C 7.4 °C 986.3 hPa NNW 3.5 km/h 6.1 km/h 97% 0.0 mm 6 W/m2
07:23 7.9 °C 7.4 °C 986.3 hPa North 2.6 km/h 6.1 km/h 97% 0.0 mm 9 W/m2
07:28 7.8 °C 7.3 °C 986.3 hPa North 1.1 km/h 6.1 km/h 97% 0.0 mm 12 W/m2
07:33 7.8 °C 7.3 °C 986.3 hPa NNW 1.1 km/h 5.0 km/h 97% 0.0 mm 17 W/m2
07:38 7.8 °C 7.3 °C 986.7 hPa NNW 2.6 km/h 5.0 km/h 97% 0.0 mm 21 W/m2
07:43 7.7 °C 7.3 °C 986.7 hPa NNW 2.6 km/h 5.0 km/h 97% 0.0 mm 28 W/m2
07:48 7.8 °C 7.3 °C 987.0 hPa NW 3.5 km/h 5.0 km/h 97% 0.0 mm 41 W/m2
07:53 8.0 °C 7.8 °C 987.0 hPa NW 3.5 km/h 6.1 km/h 99% 0.0 mm 70 W/m2
07:58 8.2 °C 8.1 °C 987.0 hPa NW 5.0 km/h 7.2 km/h 99% 0.0 mm 50 W/m2
08:03 8.4 °C 8.3 °C 987.0 hPa NNW 5.0 km/h 7.2 km/h 99% 0.0 mm 68 W/m2
08:08 8.6 °C 8.4 °C 987.0 hPa NW 6.1 km/h 9.7 km/h 99% 0.0 mm 139 W/m2
08:13 8.9 °C 8.8 °C 987.0 hPa NW 5.0 km/h 9.7 km/h 99% 0.0 mm 106 W/m2
08:19 9.5 °C 9.3 °C 987.4 hPa NW 6.1 km/h 9.7 km/h 99% 0.0 mm 182 W/m2
08:24 9.9 °C 9.8 °C 987.4 hPa NW 5.0 km/h 9.7 km/h 99% 0.0 mm 94 W/m2
08:29 9.9 °C 9.8 °C 987.4 hPa NNW 5.0 km/h 9.7 km/h 99% 0.0 mm 119 W/m2
08:34 10.0 °C 9.7 °C 987.4 hPa NNW 5.0 km/h 11.1 km/h 98% 0.0 mm 67 W/m2
08:39 10.0 °C 9.7 °C 987.4 hPa NNW 2.6 km/h 11.1 km/h 98% 0.0 mm 60 W/m2
08:44 10.0 °C 9.6 °C 987.4 hPa NNW 3.5 km/h 9.7 km/h 97% 0.3 mm 60 W/m2
08:49 10.1 °C 9.5 °C 987.4 hPa NNW 2.6 km/h 8.7 km/h 96% 0.3 mm 70 W/m2
08:54 10.2 °C 9.6 °C 987.4 hPa NW 2.6 km/h 8.7 km/h 96% 0.3 mm 83 W/m2
08:59 10.2 °C 9.6 °C 987.4 hPa WNW 5.0 km/h 8.7 km/h 96% 0.3 mm 94 W/m2
09:04 10.3 °C 9.6 °C 987.4 hPa NW 5.0 km/h 7.2 km/h 95% 0.3 mm 116 W/m2
09:09 10.6 °C 9.8 °C 987.7 hPa NNW 5.0 km/h 8.7 km/h 95% 0.3 mm 273 W/m2
09:14 11.1 °C 10.0 °C 987.4 hPa NNW 5.0 km/h 8.7 km/h 93% 0.3 mm 341 W/m2
09:19 12.0 °C 10.6 °C 987.7 hPa NNW 7.2 km/h 11.1 km/h 91% 0.3 mm 254 W/m2
09:24 12.1 °C 10.2 °C 987.4 hPa NW 6.1 km/h 11.1 km/h 88% 0.3 mm 123 W/m2
09:29 12.0 °C 9.7 °C 987.7 hPa NW 5.0 km/h 12.2 km/h 86% 0.3 mm 117 W/m2
09:34 12.2 °C 10.1 °C 987.7 hPa NW 6.1 km/h 12.2 km/h 87% 0.3 mm 118 W/m2
09:39 12.2 °C 9.9 °C 987.7 hPa NNW 5.0 km/h 12.2 km/h 86% 0.3 mm 125 W/m2
09:44 12.3 °C 10.1 °C 988.0 hPa NNW 5.0 km/h 12.2 km/h 86% 0.0 mm 132 W/m2
09:49 12.4 °C 9.9 °C 987.7 hPa NNW 8.7 km/h 11.1 km/h 85% 0.0 mm 160 W/m2
09:54 12.6 °C 9.9 °C 987.7 hPa NNW 7.2 km/h 12.2 km/h 84% 0.0 mm 169 W/m2
10:00 12.8 °C 10.2 °C 987.7 hPa NNW 5.0 km/h 12.2 km/h 84% 0.0 mm 125 W/m2
10:05 12.8 °C 10.0 °C 987.7 hPa NNW 5.0 km/h 11.1 km/h 83% 0.0 mm 87 W/m2
10:10 12.9 °C 10.1 °C 988.0 hPa NNW 5.0 km/h 11.1 km/h 83% 0.0 mm 129 W/m2
10:15 13.3 °C 10.7 °C 988.0 hPa NNW 2.6 km/h 8.7 km/h 84% 0.0 mm 170 W/m2
10:20 13.7 °C 10.7 °C 988.0 hPa NNW 8.7 km/h 11.1 km/h 82% 0.0 mm 173 W/m2
10:25 13.9 °C 10.5 °C 988.0 hPa NW 3.5 km/h 11.1 km/h 80% 0.0 mm 178 W/m2
10:30 14.1 °C 10.1 °C 988.0 hPa NNW 5.0 km/h 11.1 km/h 77% 0.0 mm 180 W/m2
10:35 14.5 °C 10.1 °C 988.0 hPa NNW 3.5 km/h 11.1 km/h 75% 0.0 mm 182 W/m2
10:40 14.7 °C 10.3 °C 988.4 hPa NNW 2.6 km/h 11.1 km/h 75% 0.0 mm 203 W/m2
10:45 14.9 °C 10.1 °C 988.4 hPa NNW 5.0 km/h 11.1 km/h 73% 0.0 mm 205 W/m2
10:50 15.2 °C 10.4 °C 988.4 hPa NNW 5.0 km/h 11.1 km/h 73% 0.0 mm 260 W/m2
10:55 15.3 °C 9.7 °C 988.4 hPa NNW 6.1 km/h 13.4 km/h 69% 0.0 mm 213 W/m2
11:00 15.4 °C 10.2 °C 988.4 hPa NNW 5.0 km/h 13.4 km/h 71% 0.0 mm 196 W/m2
11:05 15.3 °C 9.4 °C 988.4 hPa North 6.1 km/h 11.1 km/h 68% 0.0 mm 183 W/m2
11:10 15.1 °C 9.2 °C 988.7 hPa NNW 3.5 km/h 13.4 km/h 68% 0.0 mm 163 W/m2
11:15 15.1 °C 9.2 °C 988.7 hPa NNW 5.0 km/h 13.4 km/h 68% 0.0 mm 126 W/m2
11:20 15.1 °C 9.4 °C 988.4 hPa NNW 7.2 km/h 13.4 km/h 69% 0.0 mm 103 W/m2
11:25 14.8 °C 9.2 °C 988.4 hPa NNW 7.2 km/h 13.4 km/h 69% 0.0 mm 93 W/m2
11:30 14.7 °C 8.8 °C 988.7 hPa NNW 9.7 km/h 15.8 km/h 68% 0.0 mm 96 W/m2
11:35 14.6 °C 8.8 °C 988.4 hPa NW 3.5 km/h 15.8 km/h 68% 0.0 mm 103 W/m2
11:40 14.8 °C 8.9 °C 988.4 hPa NW 6.1 km/h 12.2 km/h 68% 0.0 mm 125 W/m2
11:45 14.9 °C 9.1 °C 988.4 hPa NW 6.1 km/h 13.4 km/h 68% 0.0 mm 184 W/m2
11:50 15.2 °C 9.3 °C 988.4 hPa NNW 5.0 km/h 13.4 km/h 68% 0.0 mm 209 W/m2
11:55 15.3 °C 9.0 °C 988.4 hPa NNW 11.1 km/h 14.8 km/h 66% 0.0 mm 196 W/m2
12:00 15.3 °C 9.0 °C 988.4 hPa NW 6.1 km/h 14.8 km/h 66% 0.0 mm 155 W/m2
12:05 15.4 °C 9.3 °C 988.7 hPa NNW 6.1 km/h 14.8 km/h 67% 0.0 mm 127 W/m2
12:10 15.3 °C 9.0 °C 988.4 hPa NNW 7.2 km/h 11.1 km/h 66% 0.0 mm 115 W/m2
12:15 15.1 °C 8.6 °C 988.7 hPa NNW 5.0 km/h 12.2 km/h 65% 0.0 mm 107 W/m2
12:21 15.0 °C 8.7 °C 988.4 hPa NNW 9.7 km/h 13.4 km/h 66% 0.0 mm 108 W/m2
12:26 15.0 °C 8.9 °C 988.4 hPa NNW 5.0 km/h 13.4 km/h 67% 0.0 mm 115 W/m2
12:31 15.1 °C 8.8 °C 988.4 hPa NNW 3.5 km/h 13.4 km/h 66% 0.0 mm 137 W/m2
12:36 15.2 °C 8.9 °C 988.4 hPa NNW 3.5 km/h 12.2 km/h 66% 0.0 mm 140 W/m2
12:41 15.3 °C 9.0 °C 988.0 hPa NNW 8.7 km/h 12.2 km/h 66% 0.0 mm 151 W/m2
12:46 15.4 °C 9.1 °C 988.4 hPa NNW 3.5 km/h 12.2 km/h 66% 0.0 mm 181 W/m2
12:51 15.8 °C 9.7 °C 988.4 hPa North 7.2 km/h 12.2 km/h 67% 0.0 mm 208 W/m2
12:56 15.9 °C 9.3 °C 988.4 hPa NW 6.1 km/h 12.2 km/h 65% 0.0 mm 309 W/m2
13:01 16.2 °C 9.4 °C 988.4 hPa WNW 5.0 km/h 12.2 km/h 64% 0.0 mm 191 W/m2
13:06 16.1 °C 9.1 °C 988.4 hPa NW 7.2 km/h 12.2 km/h 63% 0.0 mm 194 W/m2
13:11 16.0 °C 8.7 °C 988.4 hPa NNW 8.7 km/h 14.8 km/h 62% 0.0 mm 186 W/m2
13:16 15.9 °C 9.1 °C 988.7 hPa NNW 5.0 km/h 17.2 km/h 64% 0.0 mm 185 W/m2
13:21 15.9 °C 9.1 °C 988.4 hPa NNW 6.1 km/h 17.2 km/h 64% 0.0 mm 171 W/m2
13:26 16.0 °C 8.9 °C 989.1 hPa NW 13.4 km/h 23.3 km/h 63% 0.0 mm 70 W/m2
13:31 13.8 °C 8.6 °C 989.4 hPa SW 23.3 km/h 34.3 km/h 71% 0.0 mm 21 W/m2
13:36 12.2 °C 8.3 °C 989.4 hPa SW 13.4 km/h 34.3 km/h 77% 0.0 mm 47 W/m2
13:41 11.6 °C 9.2 °C 989.4 hPa SW 12.2 km/h 30.6 km/h 85% 0.3 mm 70 W/m2
13:46 11.4 °C 9.2 °C 989.4 hPa SW 17.2 km/h 31.7 km/h 86% 0.3 mm 125 W/m2
13:51 11.7 °C 9.3 °C 989.4 hPa SW 17.2 km/h 31.7 km/h 85% 0.3 mm 140 W/m2
13:56 11.9 °C 9.6 °C 989.4 hPa SW 15.8 km/h 28.0 km/h 86% 0.3 mm 127 W/m2
14:01 11.9 °C 9.8 °C 989.4 hPa SW 18.3 km/h 28.0 km/h 87% 0.3 mm 113 W/m2
14:06 11.9 °C 9.4 °C 989.4 hPa SW 17.2 km/h 35.6 km/h 85% 0.3 mm 145 W/m2
14:11 11.9 °C 9.4 °C 989.4 hPa SW 12.2 km/h 35.6 km/h 85% 0.3 mm 80 W/m2
14:16 11.7 °C 9.4 °C 989.7 hPa SW 19.5 km/h 33.1 km/h 86% 0.3 mm 77 W/m2
14:21 11.6 °C 9.5 °C 989.4 hPa WSW 18.3 km/h 33.1 km/h 87% 0.3 mm 53 W/m2
14:26 11.4 °C 9.5 °C 989.7 hPa West 13.4 km/h 33.1 km/h 88% 0.3 mm 50 W/m2
14:31 11.3 °C 9.4 °C 989.7 hPa WSW 14.8 km/h 29.4 km/h 88% 0.3 mm 45 W/m2
14:41 11.2 °C 9.3 °C 990.1 hPa WSW 13.4 km/h 24.5 km/h 88% 0.3 mm 42 W/m2
14:46 11.1 °C 9.3 °C 990.1 hPa WSW 11.1 km/h 23.3 km/h 89% 0.3 mm 42 W/m2
14:51 11.0 °C 9.4 °C 990.1 hPa WSW 13.4 km/h 23.3 km/h 90% 0.3 mm 64 W/m2
14:56 11.0 °C 9.4 °C 989.7 hPa SW 11.1 km/h 20.9 km/h 90% 0.3 mm 70 W/m2
15:01 11.0 °C 9.6 °C 990.1 hPa SW 6.1 km/h 20.9 km/h 91% 0.5 mm 54 W/m2
15:06 11.1 °C 9.7 °C 990.1 hPa WSW 12.2 km/h 24.5 km/h 91% 1.0 mm 45 W/m2
15:12 11.1 °C 9.5 °C 990.1 hPa WSW 8.7 km/h 24.5 km/h 90% 1.0 mm 61 W/m2
15:17 11.3 °C 9.4 °C 990.1 hPa WSW 11.1 km/h 19.5 km/h 88% 1.3 mm 78 W/m2
15:22 11.4 °C 9.3 °C 990.4 hPa SW 11.1 km/h 21.9 km/h 87% 1.3 mm 80 W/m2
15:23 11.4 °C 9.3 °C 990.4 hPa SW 9.7 km/h 21.9 km/h 87% 1.3 mm 83 W/m2
15:28 11.5 °C 9.4 °C 990.4 hPa WSW 5.0 km/h 21.9 km/h 87% 1.3 mm 87 W/m2
15:31 11.5 °C 9.4 °C 990.7 hPa West 13.4 km/h 18.3 km/h 87% 1.3 mm 83 W/m2
15:36 11.5 °C 9.4 °C 990.4 hPa West 9.7 km/h 17.2 km/h 87% 1.3 mm 63 W/m2
15:41 11.4 °C 9.3 °C 990.4 hPa WNW 5.0 km/h 17.2 km/h 87% 1.0 mm 63 W/m2
15:46 11.4 °C 9.3 °C 990.7 hPa West 7.2 km/h 14.8 km/h 87% 1.0 mm 52 W/m2
15:51 11.3 °C 9.1 °C 990.7 hPa WSW 8.7 km/h 18.3 km/h 86% 1.3 mm 46 W/m2
15:53 11.3 °C 9.1 °C 990.7 hPa WSW 7.2 km/h 18.3 km/h 86% 1.3 mm 43 W/m2
15:58 11.2 °C 8.9 °C 990.7 hPa WSW 7.2 km/h 17.2 km/h 86% 1.0 mm 33 W/m2
16:03 11.1 °C 8.8 °C 990.7 hPa WSW 5.0 km/h 13.4 km/h 86% 0.5 mm 32 W/m2
16:08 11.1 °C 8.8 °C 991.1 hPa West 5.0 km/h 11.1 km/h 86% 0.5 mm 39 W/m2
16:13 11.1 °C 8.8 °C 991.1 hPa West 3.5 km/h 8.7 km/h 86% 0.5 mm 33 W/m2
16:18 11.1 °C 8.8 °C 991.1 hPa West 3.5 km/h 7.2 km/h 86% 0.3 mm 27 W/m2
16:23 10.9 °C 8.8 °C 991.1 hPa West 1.1 km/h 7.2 km/h 87% 0.3 mm 21 W/m2
16:28 10.9 °C 9.0 °C 991.4 hPa West 2.6 km/h 6.1 km/h 88% 0.3 mm 21 W/m2
16:33 10.9 °C 9.0 °C 991.1 hPa WNW 3.5 km/h 7.2 km/h 88% 0.3 mm 19 W/m2
16:38 10.9 °C 9.0 °C 991.4 hPa WNW 3.5 km/h 7.2 km/h 88% 0.3 mm 16 W/m2
16:43 10.9 °C 9.0 °C 991.4 hPa NW 2.6 km/h 13.4 km/h 88% 0.3 mm 9 W/m2
16:48 10.9 °C 9.0 °C 991.1 hPa NW 2.6 km/h 13.4 km/h 88% 0.0 mm 6 W/m2
16:53 10.8 °C 9.1 °C 991.4 hPa NW 2.6 km/h 6.1 km/h 89% 0.0 mm 4 W/m2
16:58 10.8 °C 9.1 °C 991.4 hPa NW 2.6 km/h 7.2 km/h 89% 0.0 mm 4 W/m2
17:03 10.8 °C 9.2 °C 991.4 hPa NNW 3.5 km/h 7.2 km/h 90% 0.0 mm 3 W/m2
17:08 10.7 °C 9.3 °C 991.4 hPa North 7.2 km/h 11.1 km/h 91% 0.0 mm 2 W/m2
17:13 10.7 °C 9.4 °C 991.4 hPa North 6.1 km/h 11.1 km/h 92% 0.0 mm 1 W/m2
17:18 10.6 °C 9.3 °C 991.4 hPa NNW 5.0 km/h 9.7 km/h 92% 0.0 mm 0 W/m2
17:23 10.6 °C 9.5 °C 991.8 hPa NNW 6.1 km/h 9.7 km/h 93% 0.0 mm 0 W/m2
17:30 10.5 °C 9.4 °C 991.8 hPa NNW 6.1 km/h 8.7 km/h 93% 0.0 mm 0 W/m2
17:35 10.5 °C 9.4 °C 991.8 hPa NNW 7.2 km/h 12.2 km/h 93% 0.0 mm 0 W/m2
17:40 10.5 °C 9.4 °C 992.1 hPa NNW 5.0 km/h 11.1 km/h 93% 0.0 mm 0 W/m2
17:45 10.5 °C 9.4 °C 992.1 hPa NNW 3.5 km/h 9.7 km/h 93% 0.0 mm 0 W/m2
17:50 10.4 °C 9.3 °C 992.1 hPa NNW 3.5 km/h 9.7 km/h 93% 0.0 mm 0 W/m2
17:57 10.4 °C 9.3 °C 992.4 hPa NW 2.6 km/h 6.1 km/h 93% 0.0 mm 0 W/m2
18:02 10.4 °C 9.3 °C 992.4 hPa NW 3.5 km/h 6.1 km/h 93% 0.0 mm 0 W/m2
18:07 10.4 °C 9.3 °C 992.4 hPa NNW 6.1 km/h 8.7 km/h 93% 0.0 mm 0 W/m2
18:12 10.4 °C 9.5 °C 992.8 hPa NNW 5.0 km/h 8.7 km/h 94% 0.0 mm 0 W/m2
18:17 10.4 °C 9.5 °C 992.8 hPa North 3.5 km/h 7.2 km/h 94% 0.0 mm 0 W/m2
18:22 10.3 °C 9.4 °C 992.4 hPa NNW 2.6 km/h 6.1 km/h 94% 0.0 mm 0 W/m2
18:27 10.3 °C 9.4 °C 992.8 hPa NNW 3.5 km/h 5.0 km/h 94% 0.0 mm 0 W/m2
18:32 10.3 °C 9.4 °C 992.8 hPa NNW 5.0 km/h 7.2 km/h 94% 0.0 mm 0 W/m2
18:37 10.4 °C 9.5 °C 992.8 hPa NNW 3.5 km/h 7.2 km/h 94% 0.0 mm 0 W/m2
18:42 10.3 °C 9.4 °C 992.8 hPa NNW 5.0 km/h 7.2 km/h 94% 0.0 mm 0 W/m2
18:47 10.4 °C 9.5 °C 993.1 hPa NNW 3.5 km/h 7.2 km/h 94% 0.0 mm 0 W/m2
18:52 10.4 °C 9.5 °C 993.1 hPa NW 3.5 km/h 7.2 km/h 94% 0.0 mm 0 W/m2
18:57 10.4 °C 9.5 °C 993.1 hPa NNW 2.6 km/h 6.1 km/h 94% 0.0 mm 0 W/m2
19:02 10.4 °C 9.5 °C 993.5 hPa NNW 5.0 km/h 6.1 km/h 94% 0.0 mm 0 W/m2
19:07 10.4 °C 9.5 °C 993.5 hPa NW 3.5 km/h 6.1 km/h 94% 0.0 mm 0 W/m2
19:12 10.3 °C 9.4 °C 993.5 hPa NNW 6.1 km/h 11.1 km/h 94% 0.0 mm 0 W/m2
19:17 10.3 °C 9.4 °C 993.5 hPa NNW 7.2 km/h 11.1 km/h 94% 0.0 mm 0 W/m2
19:22 10.3 °C 9.4 °C 993.8 hPa NW 2.6 km/h 9.7 km/h 94% 0.3 mm 0 W/m2
19:38 10.1 °C 9.2 °C 993.8 hPa NW 3.5 km/h 8.7 km/h 94% 0.3 mm 0 W/m2
19:43 10.1 °C 9.2 °C 994.1 hPa NW 3.5 km/h 8.7 km/h 94% 0.3 mm 0 W/m2
19:48 10.1 °C 9.3 °C 994.1 hPa NW 2.6 km/h 8.7 km/h 95% 0.3 mm 0 W/m2
19:53 10.0 °C 9.2 °C 994.1 hPa NW 5.0 km/h 8.7 km/h 95% 0.3 mm 0 W/m2
19:58 10.0 °C 9.2 °C 994.1 hPa NW 3.5 km/h 8.7 km/h 95% 0.3 mm 0 W/m2
20:03 10.0 °C 9.2 °C 994.1 hPa NW 5.0 km/h 8.7 km/h 95% 0.3 mm 0 W/m2
20:08 10.0 °C 9.2 °C 994.1 hPa NNW 2.6 km/h 8.7 km/h 95% 0.3 mm 0 W/m2
20:13 10.0 °C 9.2 °C 994.5 hPa NW 2.6 km/h 7.2 km/h 95% 0.3 mm 0 W/m2
20:18 10.0 °C 9.2 °C 994.5 hPa NNW 3.5 km/h 6.1 km/h 95% 0.3 mm 0 W/m2
20:23 10.0 °C 9.2 °C 994.5 hPa NW 5.0 km/h 6.1 km/h 95% 0.3 mm 0 W/m2
20:28 10.0 °C 9.4 °C 994.5 hPa NNW 3.5 km/h 6.1 km/h 96% 0.3 mm 0 W/m2
20:33 10.0 °C 9.4 °C 994.8 hPa NNW 6.1 km/h 8.7 km/h 96% 0.3 mm 0 W/m2
20:38 10.0 °C 9.4 °C 994.8 hPa NNW 6.1 km/h 8.7 km/h 96% 0.3 mm 0 W/m2
20:43 9.9 °C 9.4 °C 994.8 hPa NW 5.0 km/h 9.7 km/h 97% 0.3 mm 0 W/m2
20:48 9.9 °C 9.4 °C 994.8 hPa NNW 5.0 km/h 9.7 km/h 97% 0.3 mm 0 W/m2
20:53 9.9 °C 9.3 °C 995.1 hPa North 6.1 km/h 9.7 km/h 96% 0.3 mm 0 W/m2
20:58 9.9 °C 9.3 °C 995.1 hPa NNW 3.5 km/h 9.7 km/h 96% 0.3 mm 0 W/m2
21:03 9.9 °C 9.3 °C 995.1 hPa NNW 5.0 km/h 9.7 km/h 96% 0.3 mm 0 W/m2
21:08 9.9 °C 9.3 °C 995.1 hPa NNW 3.5 km/h 8.7 km/h 96% 0.3 mm 0 W/m2
21:13 9.8 °C 9.2 °C 995.5 hPa NNW 3.5 km/h 7.2 km/h 96% 0.3 mm 0 W/m2
21:18 9.8 °C 9.2 °C 995.5 hPa North 3.5 km/h 6.1 km/h 96% 0.3 mm 0 W/m2
21:23 9.7 °C 9.1 °C 995.5 hPa NNW 2.6 km/h 6.1 km/h 96% 0.0 mm 0 W/m2
21:28 9.7 °C 9.1 °C 995.5 hPa NNW 2.6 km/h 5.0 km/h 96% 0.0 mm 0 W/m2
21:33 9.7 °C 9.1 °C 995.5 hPa NNW 2.6 km/h 5.0 km/h 96% 0.0 mm 0 W/m2
21:38 9.7 °C 9.1 °C 995.5 hPa North 3.5 km/h 5.0 km/h 96% 0.0 mm 0 W/m2
21:43 9.6 °C 9.0 °C 995.5 hPa NNW 2.6 km/h 5.0 km/h 96% 0.0 mm 0 W/m2
21:48 9.6 °C 9.0 °C 995.5 hPa NNW 2.6 km/h 5.0 km/h 96% 0.0 mm 0 W/m2
21:53 9.6 °C 9.0 °C 995.8 hPa NNW 3.5 km/h 6.1 km/h 96% 0.0 mm 0 W/m2
21:58 9.6 °C 9.0 °C 995.8 hPa NNW 2.6 km/h 6.1 km/h 96% 0.0 mm 0 W/m2
22:03 9.5 °C 8.9 °C 995.8 hPa NNW 3.5 km/h 6.1 km/h 96% 0.0 mm 0 W/m2
22:08 9.5 °C 8.9 °C 995.8 hPa North 3.5 km/h 8.7 km/h 96% 0.0 mm 0 W/m2
22:13 9.5 °C 9.1 °C 996.2 hPa North 3.5 km/h 8.7 km/h 97% 0.0 mm 0 W/m2
22:18 9.5 °C 9.1 °C 995.8 hPa North 3.5 km/h 8.7 km/h 97% 0.0 mm 0 W/m2
22:23 9.5 °C 9.1 °C 995.8 hPa North 3.5 km/h 6.1 km/h 97% 0.0 mm 0 W/m2
22:28 9.4 °C 8.9 °C 995.8 hPa North 3.5 km/h 6.1 km/h 97% 0.0 mm 0 W/m2
22:33 9.4 °C 8.9 °C 996.2 hPa North 2.6 km/h 7.2 km/h 97% 0.0 mm 0 W/m2
22:38 9.4 °C 8.9 °C 996.2 hPa NNW 3.5 km/h 7.2 km/h 97% 0.0 mm 0 W/m2
22:43 9.3 °C 8.8 °C 996.2 hPa NNW 3.5 km/h 6.1 km/h 97% 0.0 mm 0 W/m2
22:48 9.3 °C 8.8 °C 996.2 hPa NNW 3.5 km/h 6.1 km/h 97% 0.0 mm 0 W/m2
22:53 9.3 °C 8.8 °C 996.2 hPa NNW 3.5 km/h 6.1 km/h 97% 0.0 mm 0 W/m2
22:58 9.2 °C 8.8 °C 996.2 hPa NNW 3.5 km/h 6.1 km/h 97% 0.0 mm 0 W/m2
23:03 9.2 °C 8.8 °C 996.2 hPa NNW 5.0 km/h 6.1 km/h 97% 0.0 mm 0 W/m2
23:08 9.1 °C 8.7 °C 996.2 hPa NNW 3.5 km/h 6.1 km/h 97% 0.0 mm 0 W/m2
23:13 9.1 °C 8.7 °C 996.2 hPa NNW 3.5 km/h 6.1 km/h 97% 0.0 mm 0 W/m2
23:18 9.1 °C 8.7 °C 996.2 hPa NNW 3.5 km/h 6.1 km/h 97% 0.0 mm 0 W/m2
23:23 9.1 °C 8.7 °C 996.2 hPa NNW 3.5 km/h 6.1 km/h 97% 0.0 mm 0 W/m2
23:28 9.0 °C 8.6 °C 996.2 hPa NW 2.6 km/h 6.1 km/h 97% 0.0 mm 0 W/m2
23:33 8.9 °C 8.6 °C 996.2 hPa NW 3.5 km/h 6.1 km/h 98% 0.0 mm 0 W/m2
23:38 8.9 °C 8.6 °C 996.2 hPa NW 3.5 km/h 6.1 km/h 98% 0.0 mm 0 W/m2
23:43 8.9 °C 8.6 °C 996.2 hPa NW 3.5 km/h 6.1 km/h 98% 0.0 mm 0 W/m2
23:48 8.8 °C 8.5 °C 996.2 hPa NNW 5.0 km/h 7.2 km/h 98% 0.0 mm 0 W/m2
23:53 8.8 °C 8.5 °C 996.2 hPa NW 2.6 km/h 7.2 km/h 98% 0.0 mm 0 W/m2
23:58 8.7 °C 8.4 °C 996.2 hPa NNW 3.5 km/h 6.1 km/h 98% 0.0 mm 0 W/m2
Northern Hawkes Bay. New Zealand Historic Data
Compliments of Weather Underground - 2.25 mb